EKRK Airport Information

Runway Information
Runway 03 Length 4921 ft width 105 ft
Elevation 127 ft Threshold 0 ft Heading 31
Runway 21 Length 4921 ft Width 105 ft
Elevation 146 ft Threshold 0 ft Heading 211
Runway 11 Length 5709 ft width 105 ft
Elevation 145 ft Threshold 0 ft Heading 116
Runway 29 Length 5709 ft Width 105 ft
Elevation 138 ft Threshold 193 ft Heading 296
Airport Frequencies
Type APP Name APP Frequency 125.525 MHZ
Type ATIS Name ATIS Frequency 123.8 MHZ
Type MISC Name HANDLING Frequency 130.225 MHZ
Type TWR Name TWR Frequency 118.9 MHZ
Type TWR Name Frequency 119.65 MHZ
Airport Navaids
Type NDB Name Roskilde Frequency 368 KHZ
Airport Weather Information & NOTAM
ADDS - METARS form results

(0249 UTC 23 January 2022)
Data provider http://aviationweather.gov/metar/data/
 
METAR text: EKRK 230220Z AUTO 30006KT 9999 OVC006/// 04/04 Q1028
Conditions at: EKRK (COPENHAGEN/ROSKI, DK) observed 0220 UTC 23 January 2022
Temperature: 4.0°C (39°F)
Dewpoint: 4.0°C (39°F) [RH = 100%]
Pressure (altimeter): 30.35 inches Hg (1028.0 mb)
Winds: from the WNW (300 degrees) at 7 MPH (6 knots; 3.1 m/s)
Visibility: 6 or more miles (10+ km)
Ceiling: 600 feet AGL
Clouds: overcast cloud deck at 600 feet AGL
Weather: no significant weather observed at this time

METAR text: EKRK 230150Z AUTO 31006KT 9999 OVC006/// 04/04 Q1028
Conditions at: EKRK (COPENHAGEN/ROSKI, DK) observed 0150 UTC 23 January 2022
Temperature: 4.0°C (39°F)
Dewpoint: 4.0°C (39°F) [RH = 100%]
Pressure (altimeter): 30.35 inches Hg (1028.0 mb)
Winds: from the NW (310 degrees) at 7 MPH (6 knots; 3.1 m/s)
Visibility: 6 or more miles (10+ km)
Ceiling: 600 feet AGL
Clouds: overcast cloud deck at 600 feet AGL
Weather: no significant weather observed at this time

Forecast for: EKRK (COPENHAGEN/ROSKI, DK)
Text: TAF EKRK 230225Z 2303/2312 30006KT 9999 BKN008
Forecast period: 0300 to 1200 UTC 23 January 2022
Forecast type: FROM: standard forecast or significant change
Winds: from the WNW (300 degrees) at 7 MPH (6 knots; 3.1 m/s)
Visibility: 6 or more miles (10+ km)
Ceiling: 800 feet AGL
Clouds: broken clouds at 800 feet AGL
Weather: no significant weather forecast for this period
Text: TEMPO 2303/2312 1000 BR BKN004
Forecast period: 0300 to 1200 UTC 23 January 2022
Forecast type: TEMPORARY: The following changes expected for less than half the time period
Visibility: 0.62 miles (1.00 km)
Ceiling: 400 feet AGL
Clouds: broken clouds at 400 feet AGL
Weather: BR  (mist)